Time;durP1;ratioP1;P1;durP2;ratioP2;P2;SDS_P1;SDS_P2;PMS_P1;PMS_P2;Temp;Humidity;BMP_temperature;BMP_pressure;BME280_temperature;BME280_humidity;BME280_pressure;Samples;Min_cycle;Max_cycle;Signal;HPM_P1;HPM_P2
2021/09/04 00:00:53;;;;;;;3.83;3.30;;;12.80;99.90;;;;;;6062185;23;20458;-89
2021/09/04 00:03:39;;;;;;;3.47;3.17;;;12.90;99.90;;;;;;6061838;23;20372;-87
2021/09/04 00:06:25;;;;;;;3.40;3.10;;;12.90;99.90;;;;;;6062667;23;20360;-88
2021/09/04 00:09:12;;;;;;;4.07;3.35;;;12.90;99.90;;;;;;6064089;23;20355;-83
2021/09/04 00:11:58;;;;;;;3.10;2.83;;;12.80;99.90;;;;;;6063997;23;20380;-89
2021/09/04 00:14:44;;;;;;;3.42;3.13;;;12.80;99.90;;;;;;6066469;23;20387;-84
2021/09/04 00:17:30;;;;;;;2.83;2.60;;;12.60;99.90;;;;;;6065100;23;20494;-88
2021/09/04 00:20:18;;;;;;;3.60;3.20;;;12.60;99.90;;;;;;6065466;23;20356;-84
2021/09/04 00:23:04;;;;;;;3.28;2.97;;;12.60;99.90;;;;;;6064766;23;20361;-81
2021/09/04 00:25:50;;;;;;;3.10;2.90;;;12.50;99.90;;;;;;6063036;23;20485;-90
2021/09/04 00:28:36;;;;;;;3.20;3.00;;;12.50;99.90;;;;;;6068876;23;20371;-90
2021/09/04 00:31:22;;;;;;;3.45;3.05;;;12.50;99.90;;;;;;6064334;23;20368;-83
2021/09/04 00:34:08;;;;;;;3.95;3.15;;;12.50;99.90;;;;;;6084223;23;20352;-84
2021/09/04 00:36:54;;;;;;;3.50;3.15;;;12.50;99.90;;;;;;6067781;23;20398;-86
2021/09/04 00:39:40;;;;;;;3.53;3.22;;;12.50;99.90;;;;;;6062689;23;20376;-88
2021/09/04 00:42:26;;;;;;;2.85;2.65;;;12.50;99.90;;;;;;6062328;23;20360;-88
2021/09/04 00:45:12;;;;;;;3.37;3.07;;;12.40;99.90;;;;;;6065070;23;20368;-82
2021/09/04 00:48:00;;;;;;;3.70;2.90;;;12.40;99.90;;;;;;6065317;23;20370;-87
2021/09/04 00:50:46;;;;;;;3.17;2.87;;;12.40;99.90;;;;;;6065011;23;20388;-86
2021/09/04 00:53:32;;;;;;;2.80;2.60;;;12.40;99.90;;;;;;6064312;23;20463;-82
2021/09/04 00:56:17;;;;;;;3.28;2.97;;;12.40;99.90;;;;;;6063025;23;20888;-87
2021/09/04 00:59:07;;;;;;;3.03;2.80;;;12.20;99.90;;;;;;6064660;23;20408;-83
2021/09/04 01:01:54;;;;;;;3.08;2.88;;;12.30;99.90;;;;;;6065101;23;20364;-86
2021/09/04 01:04:40;;;;;;;3.25;2.92;;;12.20;99.90;;;;;;6066349;23;20371;-85
2021/09/04 01:07:26;;;;;;;3.15;2.88;;;12.20;99.90;;;;;;6063292;23;20376;-83
2021/09/04 01:10:13;;;;;;;3.47;2.97;;;12.10;99.90;;;;;;6062129;23;20388;-85
2021/09/04 01:13:00;;;;;;;3.20;3.00;;;12.10;99.90;;;;;;6067614;23;20364;-88
2021/09/04 01:15:46;;;;;;;2.70;2.50;;;12.10;99.90;;;;;;6084354;23;20385;-83
2021/09/04 01:18:32;;;;;;;3.28;2.92;;;12.00;99.90;;;;;;6062810;23;20438;-86
2021/09/04 01:21:18;;;;;;;3.42;3.13;;;12.00;99.90;;;;;;6064649;23;20352;-86
2021/09/04 01:24:05;;;;;;;2.70;2.50;;;12.00;99.90;;;;;;6064828;23;20447;-87
2021/09/04 01:26:51;;;;;;;3.60;3.05;;;11.90;99.90;;;;;;6058855;23;20364;-87
2021/09/04 01:29:37;;;;;;;3.28;2.97;;;12.00;99.90;;;;;;6065659;23;20376;-89
2021/09/04 01:32:23;;;;;;;3.15;2.75;;;12.00;99.90;;;;;;6064371;23;20375;-90
2021/09/04 01:35:10;;;;;;;3.50;3.20;;;11.90;99.90;;;;;;6066261;23;20391;-88
2021/09/04 01:37:56;;;;;;;3.33;3.03;;;11.90;99.90;;;;;;6062953;23;20379;-86
2021/09/04 01:40:43;;;;;;;3.30;2.70;;;11.90;99.90;;;;;;6082931;23;20391;-89
2021/09/04 01:43:29;;;;;;;3.28;2.97;;;11.80;99.90;;;;;;6067327;23;20376;-88
2021/09/04 01:46:14;;;;;;;3.00;2.80;;;11.70;99.90;;;;;;6065158;23;20381;-87
2021/09/04 01:49:01;;;;;;;2.88;2.63;;;11.70;99.90;;;;;;6063876;23;20360;-84
2021/09/04 01:51:47;;;;;;;3.85;2.70;;;11.70;99.90;;;;;;6084684;23;20382;-88
2021/09/04 01:54:34;;;;;;;3.00;2.80;;;11.70;99.90;;;;;;6064749;23;20383;-84
2021/09/04 01:57:21;;;;;;;2.95;2.70;;;11.70;99.90;;;;;;6082326;23;20388;-87
2021/09/04 02:00:08;;;;;;;3.10;2.80;;;11.70;99.90;;;;;;6065622;23;20374;-88
2021/09/04 02:02:58;;;;;;;3.25;2.95;;;11.70;99.90;;;;;;6065935;23;20485;-88
2021/09/04 02:05:45;;;;;;;3.28;2.97;;;11.60;99.90;;;;;;6063473;23;20524;-88
2021/09/04 02:08:31;;;;;;;2.85;2.63;;;11.60;99.90;;;;;;6062798;23;20387;-86
2021/09/04 02:11:17;;;;;;;2.70;2.50;;;11.50;99.90;;;;;;6063269;23;20348;-88
2021/09/04 02:14:03;;;;;;;2.60;2.40;;;11.50;99.90;;;;;;6078050;23;20372;-87
2021/09/04 02:16:49;;;;;;;2.80;2.60;;;11.50;99.90;;;;;;6060285;23;20445;-85
2021/09/04 02:19:37;;;;;;;2.87;2.67;;;11.60;99.90;;;;;;6062758;23;20420;-86
2021/09/04 02:22:23;;;;;;;2.70;2.50;;;11.50;99.90;;;;;;6064993;23;20368;-87
2021/09/04 02:25:10;;;;;;;2.00;1.90;;;11.50;99.90;;;;;;6064659;23;20368;-82
2021/09/04 02:27:56;;;;;;;2.60;2.40;;;11.50;99.90;;;;;;6066248;23;20369;-88
2021/09/04 02:30:42;;;;;;;2.55;2.40;;;11.50;99.90;;;;;;6065081;23;20391;-86
2021/09/04 02:33:29;;;;;;;2.80;2.60;;;11.50;99.90;;;;;;6065060;23;20360;-85
2021/09/04 02:36:15;;;;;;;2.83;2.42;;;11.40;99.90;;;;;;6063804;23;20380;-87
2021/09/04 02:39:02;;;;;;;3.00;2.70;;;11.40;99.90;;;;;;6063899;23;20379;-88
2021/09/04 02:41:49;;;;;;;2.72;2.53;;;11.40;99.90;;;;;;6064715;23;20368;-85
2021/09/04 02:44:36;;;;;;;3.13;2.83;;;11.30;99.90;;;;;;6083605;23;20660;-83
2021/09/04 02:47:22;;;;;;;3.15;2.83;;;11.30;99.90;;;;;;6062561;23;20376;-83
2021/09/04 02:50:09;;;;;;;3.08;2.88;;;11.30;99.90;;;;;;6056742;23;20380;-86
2021/09/04 02:52:55;;;;;;;2.70;2.50;;;11.20;99.90;;;;;;6059161;23;20424;-82
2021/09/04 02:55:41;;;;;;;2.87;2.60;;;11.20;99.90;;;;;;6052280;23;20387;-87
2021/09/04 02:58:27;;;;;;;3.08;2.80;;;11.20;99.90;;;;;;6061736;23;20363;-85
2021/09/04 03:01:14;;;;;;;3.13;2.83;;;11.00;99.90;;;;;;6061814;23;20379;-88
2021/09/04 03:04:01;;;;;;;2.30;2.10;;;11.10;99.90;;;;;;6061415;23;20363;-81
2021/09/04 03:06:47;;;;;;;2.57;2.37;;;11.10;99.90;;;;;;6053321;23;20849;-83
2021/09/04 03:09:34;;;;;;;2.65;2.45;;;11.20;99.90;;;;;;6062673;23;20348;-87
2021/09/04 03:12:20;;;;;;;2.38;2.28;;;11.20;99.90;;;;;;6064261;23;20400;-83
2021/09/04 03:15:06;;;;;;;3.00;2.80;;;10.90;99.90;;;;;;6079677;23;20809;-85
2021/09/04 03:17:53;;;;;;;2.83;2.42;;;10.80;99.90;;;;;;6080795;23;20364;-82
2021/09/04 03:20:40;;;;;;;2.70;2.50;;;10.80;99.90;;;;;;6084098;23;20383;-85
2021/09/04 03:23:26;;;;;;;3.20;2.78;;;10.70;99.90;;;;;;6062767;23;20356;-86
2021/09/04 03:26:12;;;;;;;2.88;2.58;;;10.70;99.90;;;;;;6058922;23;20379;-87
2021/09/04 03:28:58;;;;;;;2.33;2.20;;;10.70;99.90;;;;;;6061283;23;20400;-83
2021/09/04 03:31:45;;;;;;;2.47;2.28;;;10.60;99.90;;;;;;6054535;23;20388;-82
2021/09/04 03:34:32;;;;;;;5.68;2.60;;;10.60;99.90;;;;;;6057370;23;20391;-84
2021/09/04 03:37:21;;;;;;;2.40;2.20;;;10.60;99.90;;;;;;6059378;23;20372;-85
2021/09/04 03:40:25;;;;;;;3.00;2.50;;;10.60;99.90;;;;;;6052226;23;20380;-82
2021/09/04 03:43:12;;;;;;;2.75;2.55;;;10.60;99.90;;;;;;6057544;23;20364;-85
2021/09/04 03:46:04;;;;;;;2.80;2.60;;;10.50;99.90;;;;;;6059725;23;20408;-84
2021/09/04 03:48:53;;;;;;;2.50;2.20;;;10.60;99.90;;;;;;6069609;23;20371;-85
2021/09/04 03:51:44;;;;;;;3.38;2.75;;;10.50;99.90;;;;;;6032961;23;20420;-83
2021/09/04 03:54:47;;;;;;;2.33;2.15;;;10.50;99.90;;;;;;6080176;23;20392;-82
2021/09/04 03:57:34;;;;;;;3.05;2.63;;;10.40;99.90;;;;;;6075301;23;20376;-83
2021/09/04 04:00:22;;;;;;;3.50;2.40;;;10.50;99.90;;;;;;6067944;23;20413;-83
2021/09/04 04:03:12;;;;;;;2.33;2.13;;;10.40;99.90;;;;;;6086367;23;20374;-90
2021/09/04 04:05:59;;;;;;;2.67;2.47;;;10.40;99.90;;;;;;6046996;23;20399;-81
2021/09/04 04:08:50;;;;;;;2.80;2.60;;;10.40;99.90;;;;;;6051529;23;20360;-85
2021/09/04 04:11:41;;;;;;;2.80;2.60;;;10.40;99.90;;;;;;6079118;23;20372;-82
2021/09/04 04:14:32;;;;;;;3.20;2.90;;;10.30;99.90;;;;;;6040124;23;20372;-82
2021/09/04 04:17:23;;;;;;;3.00;2.70;;;10.30;99.90;;;;;;6062764;23;20407;-81
2021/09/04 04:20:15;;;;;;;3.25;2.95;;;10.30;99.90;;;;;;6071005;23;20686;-88
2021/09/04 04:23:01;;;;;;;3.00;2.65;;;10.20;99.90;;;;;;6040581;23;20357;-82
2021/09/04 04:25:50;;;;;;;3.53;3.22;;;10.20;99.90;;;;;;6048274;23;20388;-86
2021/09/04 04:28:40;;;;;;;2.08;1.98;;;10.10;99.90;;;;;;6051645;23;20370;-82
2021/09/04 04:31:34;;;;;;;2.65;2.45;;;10.20;99.90;;;;;;6067649;23;20352;-83
2021/09/04 04:34:20;;;;;;;2.72;2.53;;;10.20;99.90;;;;;;6027872;23;20370;-87
2021/09/04 04:37:14;;;;;;;2.45;2.25;;;10.30;99.90;;;;;;6035389;23;20448;-88
2021/09/04 04:40:05;;;;;;;3.30;3.00;;;10.30;99.90;;;;;;6034185;23;20380;-88
2021/09/04 04:42:51;;;;;;;2.53;2.33;;;10.30;99.90;;;;;;6056825;23;20376;-89
2021/09/04 04:45:38;;;;;;;2.80;2.60;;;10.30;99.90;;;;;;6060910;23;20360;-83
2021/09/04 04:48:25;;;;;;;3.20;2.90;;;10.40;99.90;;;;;;6065803;23;20873;-83
2021/09/04 04:51:12;;;;;;;3.25;2.95;;;10.40;99.90;;;;;;6083668;23;20427;-89
2021/09/04 04:53:58;;;;;;;4.40;3.73;;;10.40;99.90;;;;;;6024185;23;20400;-83
2021/09/04 04:56:45;;;;;;;5.53;4.32;;;10.50;99.90;;;;;;6058503;23;20416;-88
2021/09/04 04:59:31;;;;;;;5.13;4.63;;;10.60;99.90;;;;;;6062319;23;20386;-85
2021/09/04 05:02:18;;;;;;;6.07;5.20;;;10.60;99.90;;;;;;6084821;23;20360;-89
2021/09/04 05:05:06;;;;;;;5.38;4.75;;;10.70;99.90;;;;;;6023863;23;20353;-82
2021/09/04 05:07:52;;;;;;;5.03;4.53;;;10.80;99.90;;;;;;6064561;23;20372;-82
2021/09/04 05:10:38;;;;;;;6.60;4.72;;;10.80;99.90;;;;;;6068336;23;20435;-90
2021/09/04 05:13:25;;;;;;;6.65;5.57;;;10.90;99.90;;;;;;6066248;23;20360;-84
2021/09/04 05:16:11;;;;;;;7.67;5.97;;;11.00;99.90;;;;;;6068254;23;20368;-88
2021/09/04 05:18:57;;;;;;;7.10;5.47;;;11.10;99.90;;;;;;6083109;23;20395;-83
2021/09/04 05:21:43;;;;;;;5.80;4.53;;;11.20;99.90;;;;;;6065987;23;20351;-85
2021/09/04 05:24:30;;;;;;;5.38;4.85;;;11.30;99.90;;;;;;6089881;23;20356;-89
2021/09/04 05:27:18;;;;;;;5.30;4.80;;;11.40;99.90;;;;;;6069890;23;20361;-87
2021/09/04 05:30:05;;;;;;;5.28;4.72;;;11.60;99.90;;;;;;6068987;23;20441;-90
2021/09/04 05:32:51;;;;;;;5.38;4.88;;;11.60;99.90;;;;;;6069325;23;20360;-89
2021/09/04 05:35:37;;;;;;;5.30;3.63;;;11.70;99.90;;;;;;6089607;23;20356;-90
2021/09/04 05:41:26;;;;;;;5.10;4.47;;;11.80;99.90;;;;;;6203228;23;20377;-82
2021/09/04 05:48:09;;;;;;;4.57;4.07;;;12.00;99.90;;;;;;6185710;23;20368;-82
2021/09/04 05:50:55;;;;;;;7.13;5.15;;;12.00;99.90;;;;;;6110845;23;20379;-81
2021/09/04 06:11:16;;;;;;;3.65;3.10;;;12.90;99.90;;;;;;6203403;23;20378;-81
2021/09/04 06:14:02;;;;;;;3.57;3.27;;;12.80;99.90;;;;;;6177999;23;20373;-79
2021/09/04 06:16:52;;;;;;;3.50;3.20;;;12.80;99.90;;;;;;6154840;23;20448;-80
2021/09/04 06:19:47;;;;;;;3.20;2.92;;;12.70;99.90;;;;;;6119405;23;20396;-83
2021/09/04 06:22:39;;;;;;;4.10;3.15;;;12.80;99.90;;;;;;6128757;23;20369;-81
2021/09/04 06:25:29;;;;;;;3.13;2.85;;;12.80;99.90;;;;;;6112839;23;20370;-80
2021/09/04 06:28:42;;;;;;;3.40;3.10;;;12.90;99.90;;;;;;6151606;23;20438;-81
2021/09/04 06:32:02;;;;;;;4.78;3.92;;;12.90;99.90;;;;;;6146404;23;20373;-80
2021/09/04 06:34:49;;;;;;;3.08;2.83;;;12.90;99.90;;;;;;6146813;23;20427;-81
2021/09/04 07:14:58;;;;;;;5.35;4.60;;;14.40;99.90;;;;;;6104634;23;20374;-90
2021/09/04 07:17:45;;;;;;;4.65;4.25;;;14.40;99.90;;;;;;6122623;23;20408;-89
2021/09/04 07:20:32;;;;;;;5.65;5.00;;;14.40;99.90;;;;;;6115624;23;20550;-91
2021/09/04 07:23:18;;;;;;;5.32;4.82;;;14.70;99.90;;;;;;6112422;23;20377;-90
2021/09/04 07:26:04;;;;;;;6.40;5.40;;;14.70;99.90;;;;;;6113900;23;20382;-89
2021/09/04 07:28:53;;;;;;;6.55;4.88;;;14.80;99.90;;;;;;6114138;23;20390;-90
2021/09/04 07:31:39;;;;;;;5.63;5.03;;;15.00;99.90;;;;;;6113259;23;20370;-91
2021/09/04 07:34:24;;;;;;;4.68;3.97;;;15.00;99.90;;;;;;6101459;23;20374;-89
2021/09/04 07:37:11;;;;;;;4.97;4.57;;;15.20;99.90;;;;;;6058951;23;20400;-89
2021/09/04 07:39:57;;;;;;;6.40;5.60;;;15.40;99.90;;;;;;6114316;23;20443;-90
2021/09/04 07:42:43;;;;;;;7.20;6.13;;;15.10;99.90;;;;;;6096113;23;20378;-90
2021/09/04 07:45:34;;;;;;;5.70;5.20;;;15.30;99.90;;;;;;6096920;23;20394;-91
2021/09/04 07:48:20;;;;;;;6.15;5.18;;;15.50;99.90;;;;;;6102222;23;20396;-91
2021/09/04 07:51:06;;;;;;;5.43;4.93;;;15.60;99.90;;;;;;6057744;23;20355;-90
2021/09/04 07:54:02;;;;;;;8.00;6.40;;;15.90;99.90;;;;;;6117823;23;20366;-89
2021/09/04 07:56:48;;;;;;;4.85;4.35;;;16.00;99.90;;;;;;6115444;23;20916;-91
2021/09/04 07:59:35;;;;;;;5.57;4.07;;;16.10;99.90;;;;;;6115413;23;20381;-90
2021/09/04 08:02:23;;;;;;;5.03;4.13;;;16.20;99.90;;;;;;6100224;23;20368;-91
2021/09/04 08:05:10;;;;;;;6.88;4.65;;;16.50;99.90;;;;;;6047532;23;20364;-90
2021/09/04 08:07:56;;;;;;;4.35;3.95;;;16.60;99.90;;;;;;6105414;23;20361;-91
2021/09/04 08:10:43;;;;;;;5.40;4.88;;;16.60;99.90;;;;;;6114976;23;20591;-89
2021/09/04 08:13:29;;;;;;;6.40;5.72;;;16.90;99.90;;;;;;6112097;23;20375;-88
2021/09/04 08:16:15;;;;;;;6.23;5.63;;;16.80;99.90;;;;;;6114056;23;20374;-90
2021/09/04 08:19:01;;;;;;;6.72;5.93;;;16.90;99.90;;;;;;6088821;23;20378;-87
2021/09/04 08:21:47;;;;;;;6.65;5.90;;;17.00;99.90;;;;;;6110322;23;20370;-88
2021/09/04 08:24:33;;;;;;;6.43;5.82;;;17.20;99.90;;;;;;6108733;23;20385;-88
2021/09/04 08:27:19;;;;;;;6.10;5.50;;;17.50;99.90;;;;;;6109693;23;20382;-88
2021/09/04 08:30:06;;;;;;;6.20;5.55;;;17.60;99.90;;;;;;6089413;23;20441;-88
2021/09/04 08:32:52;;;;;;;8.25;6.82;;;17.70;99.90;;;;;;6087683;23;20366;-86
2021/09/04 08:35:38;;;;;;;6.78;5.80;;;17.80;99.90;;;;;;6110261;23;20910;-85
2021/09/04 08:38:24;;;;;;;7.32;5.53;;;17.90;99.90;;;;;;6107070;23;20467;-84
2021/09/04 08:41:10;;;;;;;6.57;5.95;;;18.10;99.90;;;;;;6107924;23;20394;-86
2021/09/04 08:43:57;;;;;;;7.32;6.32;;;18.20;99.90;;;;;;6106366;23;20414;-84
2021/09/04 08:46:43;;;;;;;7.85;6.72;;;18.40;99.90;;;;;;6108043;23;20367;-90
2021/09/04 08:49:30;;;;;;;7.55;6.85;;;18.50;99.90;;;;;;6106089;23;20430;-87
2021/09/04 08:52:19;;;;;;;7.22;6.10;;;18.50;99.90;;;;;;6106883;23;20386;-86
2021/09/04 08:55:05;;;;;;;8.23;6.53;;;18.60;99.90;;;;;;6103726;23;20517;-87
2021/09/04 08:57:51;;;;;;;7.70;5.95;;;18.60;99.90;;;;;;6083565;23;20431;-84
2021/09/04 09:00:39;;;;;;;8.02;6.68;;;18.80;99.90;;;;;;6103085;23;20370;-86
2021/09/04 09:03:28;;;;;;;8.68;6.93;;;18.90;99.90;;;;;;6106392;23;20374;-90
2021/09/04 09:06:24;;;;;;;5.93;5.25;;;19.10;99.90;;;;;;6105325;23;20374;-88
2021/09/04 09:09:16;;;;;;;8.02;7.22;;;19.30;99.90;;;;;;6105983;23;20372;-86
2021/09/04 09:12:12;;;;;;;7.30;6.55;;;19.40;99.90;;;;;;6102378;23;20434;-85
2021/09/04 09:14:59;;;;;;;6.38;5.78;;;19.60;99.90;;;;;;6106912;23;20369;-90
2021/09/04 09:17:55;;;;;;;7.07;6.30;;;19.90;99.90;;;;;;6103710;23;20375;-89
2021/09/04 09:20:43;;;;;;;9.20;7.18;;;20.00;99.90;;;;;;6103419;23;20370;-84
2021/09/04 09:23:30;;;;;;;6.93;5.72;;;19.90;99.90;;;;;;6102750;23;20382;-90
2021/09/04 09:26:16;;;;;;;7.93;6.25;;;20.00;99.90;;;;;;6106773;23;20434;-89
2021/09/04 09:29:19;;;;;;;8.23;6.93;;;20.10;99.90;;;;;;6105616;23;20379;-85
2021/09/04 09:32:07;;;;;;;7.50;6.75;;;20.30;99.90;;;;;;6046771;23;20374;-84
2021/09/04 09:34:54;;;;;;;8.43;7.53;;;20.40;99.90;;;;;;6104998;23;20445;-81
2021/09/04 09:37:52;;;;;;;11.02;8.27;;;20.60;99.90;;;;;;6103605;23;20453;-81
2021/09/04 09:40:38;;;;;;;9.48;7.85;;;20.40;99.90;;;;;;6104533;23;20446;-92
2021/09/04 09:43:29;;;;;;;8.07;7.10;;;20.50;99.90;;;;;;6099102;23;20375;-88
2021/09/04 09:46:18;;;;;;;8.27;6.67;;;20.50;99.90;;;;;;6098852;23;20814;-89
2021/09/04 09:49:08;;;;;;;8.50;6.90;;;20.40;99.90;;;;;;6098753;23;20362;-85
2021/09/04 09:51:57;;;;;;;9.07;7.20;;;20.80;99.90;;;;;;6083277;23;20370;-83
2021/09/04 09:54:47;;;;;;;9.40;7.30;;;20.90;99.90;;;;;;6107979;23;20703;-84
2021/09/04 09:57:33;;;;;;;7.75;6.95;;;21.20;99.90;;;;;;6106102;23;20715;-85
2021/09/04 10:00:19;;;;;;;7.32;6.55;;;21.40;99.90;;;;;;6085507;23;20371;-90
2021/09/04 10:03:06;;;;;;;7.93;6.82;;;21.60;99.90;;;;;;6109461;23;20378;-92
2021/09/04 10:05:53;;;;;;;7.32;6.43;;;21.80;99.90;;;;;;6106860;23;20390;-91
2021/09/04 10:08:39;;;;;;;7.57;6.47;;;22.00;99.90;;;;;;6110621;23;20383;-90
2021/09/04 10:11:25;;;;;;;8.80;7.05;;;22.20;99.90;;;;;;6111317;23;20377;-91
2021/09/04 10:14:11;;;;;;;8.80;7.90;;;22.40;99.90;;;;;;6106522;23;20382;-87
2021/09/04 10:16:58;;;;;;;7.60;6.55;;;22.60;99.90;;;;;;6108742;23;20426;-91
2021/09/04 10:19:44;;;;;;;9.75;7.88;;;22.80;99.90;;;;;;6111453;23;20385;-91
2021/09/04 10:22:30;;;;;;;9.00;7.68;;;22.80;99.90;;;;;;6111161;23;20365;-90
2021/09/04 10:25:17;;;;;;;10.00;6.93;;;23.00;99.90;;;;;;6104827;23;20370;-88
2021/09/04 10:28:03;;;;;;;11.90;7.88;;;22.90;99.90;;;;;;6104382;23;20380;-87
2021/09/04 10:30:52;;;;;;;10.77;8.47;;;23.20;99.90;;;;;;6105716;23;20371;-87
2021/09/04 10:33:39;;;;;;;8.18;6.68;;;23.30;99.90;;;;;;6104823;23;20541;-88
2021/09/04 10:36:25;;;;;;;9.02;6.75;;;23.80;99.90;;;;;;6103664;23;20406;-88
2021/09/04 10:39:11;;;;;;;7.90;6.30;;;23.80;99.90;;;;;;6103637;23;20370;-88
2021/09/04 10:41:57;;;;;;;6.93;6.00;;;23.80;99.90;;;;;;6104629;23;20883;-88
2021/09/04 10:44:45;;;;;;;6.47;5.88;;;24.00;99.90;;;;;;6085957;23;20370;-85
2021/09/04 10:47:50;;;;;;;6.97;6.28;;;24.10;99.90;;;;;;6084080;23;20379;-87
2021/09/04 10:50:36;;;;;;;5.93;5.32;;;24.20;99.90;;;;;;6102914;23;20366;-86
2021/09/04 10:53:40;;;;;;;5.82;5.25;;;24.30;99.90;;;;;;6103399;23;20367;-86
2021/09/04 10:56:30;;;;;;;4.68;4.28;;;24.50;99.90;;;;;;6104087;23;20760;-87
2021/09/04 10:59:21;;;;;;;4.88;4.40;;;24.60;99.90;;;;;;6100893;23;20906;-83
2021/09/04 11:02:07;;;;;;;5.00;4.50;;;24.80;99.90;;;;;;6078800;23;20982;-85
2021/09/04 11:04:56;;;;;;;5.55;4.80;;;25.20;99.90;;;;;;6095574;23;20370;-87
2021/09/04 11:07:45;;;;;;;5.60;5.05;;;25.10;99.90;;;;;;6097550;23;20591;-82
2021/09/04 11:10:31;;;;;;;4.95;4.35;;;25.10;99.90;;;;;;6097405;23;20359;-82
2021/09/04 11:13:18;;;;;;;4.32;3.92;;;25.10;99.90;;;;;;6095235;23;20386;-83
2021/09/04 11:16:36;;;;;;;7.90;4.80;;;25.50;99.90;;;;;;6099991;23;20386;-85
2021/09/04 11:19:29;;;;;;;4.88;4.40;;;25.60;99.90;;;;;;6097673;23;20398;-89
2021/09/04 11:22:15;;;;;;;5.75;4.43;;;25.60;99.90;;;;;;6096529;23;20366;-85
2021/09/04 11:25:01;;;;;;;4.60;4.15;;;25.60;99.90;;;;;;6097650;23;20370;-87
2021/09/04 11:27:47;;;;;;;5.23;3.93;;;25.60;99.90;;;;;;6097663;23;20374;-83
2021/09/04 11:30:33;;;;;;;4.95;4.45;;;25.40;99.90;;;;;;6095027;23;20377;-85
2021/09/04 11:33:19;;;;;;;3.97;3.58;;;25.70;99.90;;;;;;6097395;23;20398;-88
2021/09/04 11:36:05;;;;;;;5.95;4.65;;;25.90;99.90;;;;;;6096724;23;20431;-87
2021/09/04 11:38:51;;;;;;;5.00;4.50;;;25.80;99.90;;;;;;6095395;23;20926;-83
2021/09/04 11:41:46;;;;;;;5.57;3.78;;;25.90;99.90;;;;;;6094451;23;20426;-83
2021/09/04 11:44:32;;;;;;;6.20;4.93;;;26.10;99.90;;;;;;6096880;23;20422;-88
2021/09/04 11:47:18;;;;;;;6.53;4.32;;;26.50;99.90;;;;;;6096493;23;20389;-86
2021/09/04 11:50:06;;;;;;;5.35;4.75;;;26.70;99.90;;;;;;6056423;23;20373;-89
2021/09/04 11:52:53;;;;;;;6.93;3.65;;;26.70;99.90;;;;;;6077999;23;20382;-86
2021/09/04 11:55:39;;;;;;;5.25;4.13;;;27.00;99.90;;;;;;6077006;23;20418;-86
2021/09/04 11:58:25;;;;;;;5.22;4.05;;;26.20;99.90;;;;;;6094248;23;20410;-86
2021/09/04 12:01:11;;;;;;;4.55;4.15;;;26.50;99.90;;;;;;6076858;23;20363;-86
2021/09/04 12:03:57;;;;;;;7.35;4.78;;;26.60;99.90;;;;;;6096615;23;20385;-87
2021/09/04 12:06:47;;;;;;;5.50;4.97;;;26.90;99.90;;;;;;6092632;23;20677;-86
2021/09/04 12:09:33;;;;;;;6.05;4.60;;;26.40;99.90;;;;;;6099605;23;20449;-84
2021/09/04 12:12:19;;;;;;;5.55;4.28;;;26.10;99.90;;;;;;6097159;23;20359;-84
2021/09/04 12:15:05;;;;;;;5.10;4.20;;;25.40;99.90;;;;;;6095792;23;20382;-85
2021/09/04 12:17:58;;;;;;;4.30;3.90;;;25.10;99.90;;;;;;6094638;23;20483;-90
2021/09/04 12:20:44;;;;;;;4.85;3.88;;;25.30;99.90;;;;;;6093263;23;20421;-85
2021/09/04 12:23:31;;;;;;;6.40;4.30;;;25.70;99.90;;;;;;6092292;23;20370;-82
2021/09/04 12:26:17;;;;;;;5.15;4.07;;;25.70;99.90;;;;;;6013241;23;20370;-83
2021/09/04 12:29:07;;;;;;;4.85;3.97;;;25.80;99.90;;;;;;6093802;23;20363;-83
2021/09/04 12:31:53;;;;;;;5.35;3.22;;;26.10;99.90;;;;;;6095968;23;20824;-84
2021/09/04 12:34:39;;;;;;;4.33;3.70;;;26.60;99.90;;;;;;6091592;23;20367;-86
2021/09/04 12:37:29;;;;;;;4.38;3.88;;;26.60;99.90;;;;;;6092792;23;20408;-82
2021/09/04 12:40:15;;;;;;;4.82;4.18;;;26.90;99.90;;;;;;6095300;23;20394;-85
2021/09/04 12:43:01;;;;;;;4.70;4.25;;;26.60;99.90;;;;;;6092164;23;20715;-82
2021/09/04 12:46:03;;;;;;;5.95;3.97;;;27.00;99.90;;;;;;6095438;23;20378;-84
2021/09/04 12:48:49;;;;;;;5.55;3.78;;;27.40;99.90;;;;;;6097637;23;20378;-82
2021/09/04 12:51:35;;;;;;;5.38;4.47;;;27.80;99.90;;;;;;6092677;23;20920;-82
2021/09/04 12:54:49;;;;;;;4.87;3.83;;;28.40;99.90;;;;;;6074554;23;20351;-84
2021/09/04 12:57:37;;;;;;;5.15;3.83;;;28.60;99.90;;;;;;6088947;23;20374;-80
2021/09/04 13:01:11;;;;;;;4.97;4.00;;;28.90;99.90;;;;;;6104852;23;20452;-82
2021/09/04 13:07:22;;;;;;;3.72;3.20;;;29.20;99.90;;;;;;6147752;23;20397;-82
2021/09/04 13:10:10;;;;;;;3.33;3.03;;;28.80;99.90;;;;;;6082757;23;20371;-89
2021/09/04 13:12:56;;;;;;;5.05;3.45;;;28.20;99.90;;;;;;6116153;23;20372;-84
2021/09/04 13:15:43;;;;;;;4.32;3.20;;;28.30;99.90;;;;;;6084464;23;20365;-82
2021/09/04 13:18:31;;;;;;;4.10;3.50;;;28.20;99.90;;;;;;6122577;23;20369;-87
2021/09/04 13:21:20;;;;;;;4.85;3.65;;;28.60;99.90;;;;;;6106655;23;20439;-86
2021/09/04 13:24:22;;;;;;;4.27;3.87;;;28.30;99.90;;;;;;6072198;23;20372;-88
2021/09/04 14:32:14;;;;;;;3.60;3.05;;;31.30;91.00;;;;;;6202006;23;20385;-80
2021/09/04 14:42:06;;;;;;;3.65;3.35;;;31.10;91.20;;;;;;6212596;23;20420;-79
2021/09/04 14:46:10;;;;;;;3.40;3.10;;;31.00;92.80;;;;;;6171936;23;20365;-81
2021/09/04 14:50:12;;;;;;;4.22;2.90;;;30.80;90.60;;;;;;6191614;23;20358;-79
2021/09/04 14:53:54;;;;;;;3.60;3.30;;;31.30;90.50;;;;;;6138905;23;20379;-80
2021/09/04 14:56:55;;;;;;;2.95;2.67;;;30.40;87.40;;;;;;6124077;23;20382;-85
2021/09/04 14:59:46;;;;;;;3.10;2.80;;;29.30;89.50;;;;;;6164812;23;20370;-83
2021/09/04 15:02:32;;;;;;;2.75;2.50;;;28.70;92.00;;;;;;6176691;23;20365;-81
2021/09/04 15:05:19;;;;;;;3.67;3.10;;;28.30;92.20;;;;;;6197069;23;20429;-84
2021/09/04 15:08:06;;;;;;;4.05;2.92;;;28.00;93.00;;;;;;6152742;23;20461;-86
2021/09/04 15:10:52;;;;;;;2.53;2.40;;;27.60;93.50;;;;;;6137375;23;20898;-80
2021/09/04 15:13:38;;;;;;;3.63;2.78;;;27.40;93.50;;;;;;6149629;23;20448;-81
2021/09/04 15:16:25;;;;;;;4.18;3.08;;;27.10;93.70;;;;;;6152712;23;20408;-88
2021/09/04 15:19:11;;;;;;;3.13;2.92;;;26.70;94.10;;;;;;6154891;23;20425;-89
2021/09/04 15:21:57;;;;;;;4.10;3.20;;;26.60;95.30;;;;;;6152266;23;20361;-89
2021/09/04 15:24:43;;;;;;;5.50;3.80;;;26.50;95.00;;;;;;6171768;23;20365;-91
2021/09/04 15:27:29;;;;;;;3.03;2.78;;;26.00;95.10;;;;;;6153350;23;20404;-89
2021/09/04 15:30:15;;;;;;;2.42;2.22;;;26.20;95.80;;;;;;6174709;23;20432;-90
2021/09/04 15:33:01;;;;;;;4.00;2.80;;;26.40;95.80;;;;;;6175152;23;20377;-91
2021/09/04 15:35:47;;;;;;;3.45;3.08;;;26.30;95.20;;;;;;6155809;23;20365;-90
2021/09/04 15:38:33;;;;;;;4.13;3.33;;;26.30;96.00;;;;;;6155287;23;20377;-89
2021/09/04 15:41:19;;;;;;;3.75;3.40;;;26.00;95.40;;;;;;6154397;23;20369;-93
2021/09/04 15:44:06;;;;;;;7.95;5.25;;;25.70;96.10;;;;;;6155807;23;20389;-91
2021/09/04 15:46:52;;;;;;;3.28;2.97;;;25.70;97.40;;;;;;6152515;23;20383;-91
2021/09/04 15:49:38;;;;;;;2.88;2.60;;;25.60;96.30;;;;;;6155631;23;20454;-91
2021/09/04 15:52:24;;;;;;;3.28;2.60;;;25.40;96.20;;;;;;6172924;23;20365;-90
2021/09/04 15:55:10;;;;;;;3.38;3.08;;;25.20;96.90;;;;;;6173603;23;20373;-89
2021/09/04 15:57:56;;;;;;;2.80;2.50;;;24.90;97.50;;;;;;6173398;23;20408;-88
2021/09/04 16:00:42;;;;;;;2.40;2.20;;;24.60;98.30;;;;;;6154996;23;20373;-88
2021/09/04 16:03:28;;;;;;;3.87;2.73;;;24.50;98.40;;;;;;6154213;23;20925;-89
2021/09/04 16:06:14;;;;;;;2.40;2.20;;;24.30;98.50;;;;;;6174693;23;20869;-86
2021/09/04 16:09:00;;;;;;;3.03;2.50;;;24.20;99.30;;;;;;6156027;23;20353;-89
2021/09/04 16:11:46;;;;;;;2.50;2.10;;;24.10;99.30;;;;;;6156941;23;20392;-89
2021/09/04 16:14:32;;;;;;;2.65;2.45;;;23.90;99.90;;;;;;6156022;23;20361;-88
2021/09/04 16:17:19;;;;;;;2.42;2.30;;;23.60;99.90;;;;;;6154140;23;20377;-84
2021/09/04 16:20:06;;;;;;;3.70;3.00;;;23.40;99.90;;;;;;6132658;23;20370;-87
2021/09/04 16:22:52;;;;;;;2.70;2.50;;;23.10;99.90;;;;;;6156132;23;20377;-86
2021/09/04 16:25:38;;;;;;;2.10;1.90;;;22.90;99.90;;;;;;6154152;23;20357;-87
2021/09/04 16:28:24;;;;;;;3.00;2.70;;;22.90;99.90;;;;;;6155252;23;20357;-90
2021/09/04 16:31:10;;;;;;;4.10;2.55;;;22.80;99.90;;;;;;6152433;23;20492;-87
2021/09/04 16:33:56;;;;;;;3.05;2.50;;;22.70;99.90;;;;;;6150334;23;20373;-87
2021/09/04 16:36:42;;;;;;;3.00;2.75;;;22.50;99.90;;;;;;6152096;23;20467;-85
2021/09/04 16:39:28;;;;;;;2.58;2.38;;;22.40;99.90;;;;;;6154435;23;20464;-85
2021/09/04 16:42:14;;;;;;;2.60;2.40;;;22.30;99.90;;;;;;6169460;23;20407;-87
2021/09/04 16:45:00;;;;;;;2.75;2.53;;;22.10;99.90;;;;;;6151344;23;20384;-87
2021/09/04 16:47:46;;;;;;;2.80;2.47;;;22.00;99.90;;;;;;6155231;23;20372;-88
2021/09/04 16:50:32;;;;;;;3.00;2.80;;;21.90;99.90;;;;;;6155633;23;20522;-90
2021/09/04 16:53:18;;;;;;;3.17;2.67;;;21.90;99.90;;;;;;6131898;23;20452;-87